Time;durP1;ratioP1;P1;durP2;ratioP2;P2;SDS_P1;SDS_P2;PMS_P1;PMS_P2;Temp;Humidity;BMP_temperature;BMP_pressure;BME280_temperature;BME280_humidity;BME280_pressure;Samples;Min_cycle;Max_cycle;Signal;HPM_P1;HPM_P2
2021/03/02 00:02:16;;;;;;;29.95;15.83;;;;;;;0.18;85.60;98413.94;1789659;79;21134;-83
2021/03/02 00:04:47;;;;;;;28.45;15.75;;;;;;;0.18;85.35;98416.55;1792999;79;21499;-83
2021/03/02 00:07:16;;;;;;;26.97;13.93;;;;;;;0.14;85.07;98422.59;1781075;79;21084;-83
2021/03/02 00:09:45;;;;;;;26.82;15.90;;;;;;;0.09;84.81;98415.74;1777178;79;21464;-83
2021/03/02 00:12:14;;;;;;;29.92;14.75;;;;;;;0.04;84.82;98414.63;1779404;79;21162;-83
2021/03/02 00:14:41;;;;;;;28.00;14.98;;;;;;;0.03;84.99;98412.51;1777076;79;21472;-83
2021/03/02 00:17:34;;;;;;;25.43;14.73;;;;;;;0.02;84.98;98417.41;1769921;79;21148;-82
2021/03/02 00:20:14;;;;;;;30.60;16.75;;;;;;;-0.14;84.53;98410.44;1767297;79;21554;-83
2021/03/02 00:22:51;;;;;;;;;;;;;;;-0.14;84.53;98410.44;1788699;79;21107;-83
2021/03/02 00:25:18;;;;;;;27.55;14.63;;;;;;;-0.19;84.55;98415.80;1756936;80;20112;-83
2021/03/02 00:27:46;;;;;;;25.85;15.48;;;;;;;-0.26;84.40;98410.45;1754357;81;21170;-83
2021/03/02 00:30:16;;;;;;;31.12;17.57;;;;;;;-0.34;84.37;98411.75;1755678;80;21171;-83
2021/03/02 00:32:46;;;;;;;;;;;;;;;-0.35;84.45;98413.54;1750886;81;21183;-83
2021/03/02 00:35:15;;;;;;;27.23;14.43;;;;;;;-0.41;84.32;98413.39;1752819;81;20125;-83
2021/03/02 00:37:47;;;;;;;22.30;12.73;;;;;;;-0.46;84.22;98409.95;1797358;79;21268;-83
2021/03/02 00:40:17;;;;;;;24.40;13.93;;;;;;;-0.49;84.17;98418.59;1779695;79;21561;-83
2021/03/02 00:42:45;;;;;;;27.82;15.55;;;;;;;-0.49;84.33;98419.90;1782824;79;21123;-83
2021/03/02 00:45:13;;;;;;;29.45;15.23;;;;;;;-0.54;84.22;98416.98;1768133;79;21119;-83
2021/03/02 00:47:40;;;;;;;25.90;14.80;;;;;;;-0.55;84.27;98420.56;1793588;79;21455;-83
2021/03/02 00:50:09;;;;;;;26.33;15.05;;;;;;;-0.56;84.37;98410.64;1796843;79;21143;-83
2021/03/02 00:52:37;;;;;;;30.35;15.60;;;;;;;-0.53;84.25;98422.52;1774865;79;21122;-83
2021/03/02 00:55:09;;;;;;;24.05;12.25;;;;;;;-0.55;84.21;98414.87;1786031;79;21099;-83
2021/03/02 00:57:38;;;;;;;26.27;13.93;;;;;;;-0.58;83.94;98408.66;1784043;79;21131;-83
2021/03/02 01:00:08;;;;;;;25.27;13.58;;;;;;;-1.01;84.39;98396.27;1772524;80;21131;-83
2021/03/02 01:02:35;;;;;;;22.90;13.85;;;;;;;-1.01;84.39;98396.27;1778366;80;21484;-83
2021/03/02 01:05:08;;;;;;;28.77;16.62;;;;;;;-1.04;85.01;98404.89;1784424;79;21264;-83
2021/03/02 01:07:36;;;;;;;25.35;15.90;;;;;;;-1.05;85.54;98399.36;1756163;80;21130;-83
2021/03/02 01:10:09;;;;;;;25.48;14.75;;;;;;;-1.06;85.80;98402.94;1776691;80;21487;-83
2021/03/02 01:12:36;;;;;;;27.20;15.43;;;;;;;-1.03;86.20;98405.21;1774577;80;21563;-83
2021/03/02 01:15:07;;;;;;;27.27;14.98;;;;;;;-1.01;85.88;98409.77;1758517;80;21122;-83
2021/03/02 01:17:35;;;;;;;;;;;;;;;-1.15;85.31;98398.19;1773457;80;21107;-83
2021/03/02 01:20:03;;;;;;;29.00;14.93;;;;;;;-1.32;86.14;98392.14;1755082;81;20186;-83
2021/03/02 01:22:30;;;;;;;26.73;13.32;;;;;;;-1.29;86.99;98384.50;1751806;81;21492;-83
2021/03/02 01:24:57;;;;;;;22.82;13.15;;;;;;;-1.24;87.72;98377.86;1758355;81;21458;-83
2021/03/02 01:27:24;;;;;;;24.05;13.60;;;;;;;-1.16;88.14;98374.94;1753909;80;21119;-83
2021/03/02 01:29:51;;;;;;;26.07;13.25;;;;;;;-1.07;88.19;98366.17;1732347;81;21161;-83
2021/03/02 01:32:18;;;;;;;25.12;13.35;;;;;;;-1.02;88.37;98358.69;1735302;81;21115;-83
2021/03/02 01:34:45;;;;;;;33.48;15.98;;;;;;;-0.84;88.72;98356.77;1751342;81;21439;-83
2021/03/02 01:37:12;;;;;;;27.73;14.73;;;;;;;-0.67;88.67;98343.24;1779303;80;21135;-83
2021/03/02 01:39:39;;;;;;;31.77;16.73;;;;;;;-0.51;88.52;98348.92;1765405;80;21130;-83
2021/03/02 01:42:06;;;;;;;29.70;17.25;;;;;;;-0.49;88.04;98346.95;1767881;80;21173;-84
2021/03/02 01:44:33;;;;;;;27.10;14.90;;;;;;;-0.50;87.89;98342.23;1760406;80;21121;-83
2021/03/02 01:47:00;;;;;;;25.48;13.95;;;;;;;-0.51;87.87;98338.50;1776749;80;21122;-83
2021/03/02 01:49:28;;;;;;;19.20;11.12;;;;;;;-0.41;87.82;98337.34;1760883;80;21469;-83
2021/03/02 01:51:54;;;;;;;27.70;15.93;;;;;;;-0.33;88.00;98333.41;1770755;80;21178;-84
2021/03/02 01:54:21;;;;;;;23.80;14.07;;;;;;;-0.17;88.00;98335.64;1760726;80;21191;-83
2021/03/02 01:56:48;;;;;;;28.55;16.23;;;;;;;0.02;88.18;98339.19;1768598;80;21125;-83
2021/03/02 01:59:18;;;;;;;19.37;11.57;;;;;;;0.24;88.16;98338.43;1734773;80;21162;-83
2021/03/02 02:01:45;;;;;;;23.87;12.43;;;;;;;0.41;87.86;98335.24;1751165;81;21163;-83
2021/03/02 02:04:22;;;;;;;26.12;14.63;;;;;;;0.48;87.52;98333.59;1745454;81;21447;-83
2021/03/02 02:10:06;;;;;;;28.62;14.45;;;;;;;0.58;86.80;98326.37;1889413;75;23023;-82
2021/03/02 02:12:41;;;;;;;23.25;13.28;;;;;;;0.48;86.60;98325.77;1823599;77;21150;-82
2021/03/02 02:15:14;;;;;;;23.50;12.95;;;;;;;0.45;86.42;98333.94;1849527;77;21112;-82
2021/03/02 02:17:46;;;;;;;28.00;14.05;;;;;;;0.45;86.40;98324.00;1835890;77;21582;-82
2021/03/02 02:20:52;;;;;;;19.30;12.68;;;;;;;0.42;86.31;98323.82;1842731;77;21144;-84
2021/03/02 02:24:03;;;;;;;16.85;10.13;;;;;;;0.44;86.31;98327.09;1821432;76;21486;-84
2021/03/02 02:26:56;;;;;;;30.55;7.97;;;;;;;0.45;86.24;98331.83;1838618;77;21228;-84
2021/03/02 02:29:36;;;;;;;20.68;10.85;;;;;;;0.48;86.14;98319.23;1839942;76;21127;-82
2021/03/02 02:32:06;;;;;;;15.08;8.65;;;;;;;0.47;85.91;98329.36;1853477;76;21111;-83
2021/03/02 02:34:37;;;;;;;23.18;12.18;;;;;;;0.45;85.70;98316.17;1839303;77;21100;-83
2021/03/02 02:37:05;;;;;;;16.12;8.78;;;;;;;0.40;85.59;98323.19;1788440;79;21163;-83
2021/03/02 02:39:36;;;;;;;23.83;13.83;;;;;;;0.35;85.59;98322.89;1791464;79;21156;-83
2021/03/02 02:42:04;;;;;;;24.27;15.65;;;;;;;0.31;85.67;98317.71;1795553;79;21146;-83
2021/03/02 02:44:33;;;;;;;24.85;15.20;;;;;;;0.28;85.80;98321.48;1770904;80;21087;-83
2021/03/02 02:47:01;;;;;;;24.43;14.13;;;;;;;0.28;85.81;98315.41;1796161;79;21182;-83
2021/03/02 02:49:29;;;;;;;22.77;12.53;;;;;;;0.32;85.90;98321.12;1772490;79;21266;-83
2021/03/02 02:51:56;;;;;;;17.42;9.35;;;;;;;0.43;85.94;98302.48;1769571;80;21251;-83
2021/03/02 02:54:26;;;;;;;17.10;10.08;;;;;;;0.49;85.81;98307.81;1775457;80;21084;-83
2021/03/02 02:56:54;;;;;;;21.35;11.25;;;;;;;0.55;85.54;98297.98;1787164;79;21118;-83
2021/03/02 02:59:25;;;;;;;17.67;9.70;;;;;;;0.67;85.16;98297.59;1776853;80;21271;-83
2021/03/02 03:02:02;;;;;;;18.42;9.35;;;;;;;0.74;84.70;98292.01;1784098;79;21496;-83
2021/03/02 03:04:38;;;;;;;20.35;9.83;;;;;;;0.75;84.20;98307.49;1773346;80;21122;-83
2021/03/02 03:07:10;;;;;;;21.25;9.88;;;;;;;0.75;83.87;98300.16;1779950;80;21164;-82
2021/03/02 03:09:40;;;;;;;21.82;12.15;;;;;;;0.83;83.42;98298.77;1786921;80;21479;-83
2021/03/02 03:12:11;;;;;;;17.87;9.33;;;;;;;0.85;83.12;98278.06;1772718;80;21114;-83
2021/03/02 03:14:49;;;;;;;19.50;9.43;;;;;;;0.81;82.92;98304.17;1786776;79;21122;-82
2021/03/02 03:17:18;;;;;;;16.37;9.65;;;;;;;0.83;82.85;98298.77;1793412;80;21171;-83
2021/03/02 03:19:46;;;;;;;17.30;8.60;;;;;;;0.87;82.54;98273.47;1772453;80;21512;-83
2021/03/02 03:22:16;;;;;;;13.18;7.25;;;;;;;0.94;82.18;98287.92;1796073;80;21439;-83
2021/03/02 03:24:44;;;;;;;12.23;5.58;;;;;;;1.03;81.66;98297.33;1751994;80;21172;-83
2021/03/02 03:27:13;;;;;;;19.05;10.05;;;;;;;1.12;81.09;98282.38;1803286;78;21117;-83
2021/03/02 03:29:42;;;;;;;14.97;7.10;;;;;;;1.18;80.66;98286.42;1809384;79;21089;-83
2021/03/02 03:32:12;;;;;;;13.03;6.83;;;;;;;1.22;80.23;98295.20;1780090;80;21114;-83
2021/03/02 03:34:42;;;;;;;14.13;7.87;;;;;;;1.26;79.47;98270.34;1770139;80;21155;-83
2021/03/02 03:37:09;;;;;;;17.95;10.10;;;;;;;1.26;79.47;98270.34;1781383;79;21120;-83
2021/03/02 03:39:37;;;;;;;16.00;8.60;;;;;;;1.26;79.58;98295.16;1778568;80;21208;-83
2021/03/02 03:42:04;;;;;;;16.70;8.15;;;;;;;1.19;79.55;98306.33;1783960;80;21537;-83
2021/03/02 03:44:31;;;;;;;16.02;8.93;;;;;;;1.16;79.51;98309.30;1767946;80;21104;-83
2021/03/02 03:46:59;;;;;;;21.95;10.25;;;;;;;1.15;79.44;98297.23;1773541;80;21102;-83
2021/03/02 03:49:26;;;;;;;15.43;8.40;;;;;;;1.12;79.50;98294.13;1772705;80;21115;-83
2021/03/02 03:51:54;;;;;;;18.85;10.53;;;;;;;1.06;79.65;98297.46;1777907;80;21143;-83
2021/03/02 03:54:25;;;;;;;15.90;8.55;;;;;;;1.01;79.84;98295.88;1785747;78;21245;-83
2021/03/02 03:56:54;;;;;;;19.92;9.80;;;;;;;1.02;79.88;98296.20;1815086;78;21144;-84
2021/03/02 03:59:24;;;;;;;16.25;7.92;;;;;;;1.01;79.76;98307.63;1793428;79;21462;-83
2021/03/02 04:01:55;;;;;;;14.33;6.75;;;;;;;0.99;79.84;98296.56;1794077;78;21622;-83
2021/03/02 04:04:25;;;;;;;21.27;10.88;;;;;;;0.99;79.76;98305.70;1793039;78;21546;-83
2021/03/02 04:06:54;;;;;;;10.95;7.45;;;;;;;0.99;79.77;98296.06;1775056;80;21159;-83
2021/03/02 04:09:22;;;;;;;14.20;7.08;;;;;;;0.96;79.77;98311.25;1799850;78;21108;-83
2021/03/02 04:11:50;;;;;;;10.40;5.42;;;;;;;0.97;79.76;98314.98;1799546;79;21175;-83
2021/03/02 04:14:17;;;;;;;18.52;8.05;;;;;;;0.98;79.65;98316.61;1774651;79;21499;-83
2021/03/02 04:16:44;;;;;;;13.85;6.83;;;;;;;1.01;79.55;98304.53;1786538;79;21158;-83
2021/03/02 04:19:11;;;;;;;11.83;7.47;;;;;;;1.01;79.55;98304.53;1801191;79;21112;-83
2021/03/02 04:21:38;;;;;;;15.32;9.43;;;;;;;0.87;79.25;98281.80;1822044;77;21147;-83
2021/03/02 04:24:07;;;;;;;17.23;8.28;;;;;;;1.09;79.26;98317.50;1795232;79;21111;-83
2021/03/02 04:26:34;;;;;;;18.25;8.50;;;;;;;1.13;79.04;98303.13;1783823;80;21143;-83
2021/03/02 04:29:01;;;;;;;19.30;10.72;;;;;;;1.18;78.86;98306.50;1799971;79;21107;-83
2021/03/02 04:31:28;;;;;;;16.07;9.35;;;;;;;1.09;78.92;98295.80;1785971;79;21529;-83
2021/03/02 04:33:55;;;;;;;18.92;10.13;;;;;;;1.11;78.66;98310.80;1805392;78;21142;-83
2021/03/02 04:36:22;;;;;;;10.95;5.28;;;;;;;1.04;78.46;98304.67;1780144;79;21080;-83
2021/03/02 04:38:49;;;;;;;16.80;7.65;;;;;;;1.04;78.46;98304.67;1784556;79;21488;-83
2021/03/02 04:41:17;;;;;;;10.55;6.80;;;;;;;1.11;78.28;98308.99;1787071;79;21178;-83
2021/03/02 04:43:44;;;;;;;15.55;8.95;;;;;;;1.21;77.96;98302.72;1783969;79;21103;-83
2021/03/02 04:46:11;;;;;;;12.58;7.05;;;;;;;1.28;77.75;98297.12;1796502;79;21479;-83
2021/03/02 04:48:38;;;;;;;16.87;9.25;;;;;;;1.27;77.16;98296.78;1776268;79;21174;-83
2021/03/02 04:51:05;;;;;;;12.82;7.15;;;;;;;1.29;77.04;98302.66;1774666;79;21531;-83
2021/03/02 04:53:33;;;;;;;10.85;5.70;;;;;;;1.25;76.74;98294.34;1771341;80;21472;-83
2021/03/02 04:56:01;;;;;;;11.05;6.53;;;;;;;1.30;76.35;98289.91;1794073;79;21265;-83
2021/03/02 04:58:28;;;;;;;17.92;9.30;;;;;;;1.36;76.10;98296.53;1796213;79;21123;-83
2021/03/02 05:00:55;;;;;;;25.32;11.93;;;;;;;1.40;76.10;98302.20;1807458;78;21166;-83
2021/03/02 05:03:22;;;;;;;15.60;8.20;;;;;;;1.37;75.93;98311.22;1745872;80;21131;-83
2021/03/02 05:05:49;;;;;;;15.32;7.87;;;;;;;1.37;76.26;98311.72;1772539;80;21147;-83
2021/03/02 05:08:16;;;;;;;14.73;7.85;;;;;;;1.18;75.82;98290.83;1770049;78;21612;-83
2021/03/02 05:10:43;;;;;;;18.40;8.70;;;;;;;1.17;76.42;98297.05;1763584;80;21536;-83
2021/03/02 05:13:10;;;;;;;13.85;8.15;;;;;;;1.17;76.42;98297.05;1774628;80;21144;-83
2021/03/02 05:15:37;;;;;;;15.83;8.70;;;;;;;1.23;76.26;98311.19;1786949;78;21541;-83
2021/03/02 05:18:05;;;;;;;17.42;9.53;;;;;;;1.24;76.37;98318.03;1780372;79;21141;-83
2021/03/02 05:20:32;;;;;;;16.75;9.33;;;;;;;1.23;76.39;98310.70;1783780;79;21119;-83
2021/03/02 05:22:59;;;;;;;16.90;9.28;;;;;;;1.19;76.46;98314.16;1762874;79;21657;-83
2021/03/02 05:25:26;;;;;;;15.32;7.42;;;;;;;1.14;76.61;98305.24;1760081;80;21510;-83
2021/03/02 05:27:54;;;;;;;19.95;9.70;;;;;;;1.13;76.73;98314.07;1761801;80;21179;-83
2021/03/02 05:30:22;;;;;;;15.45;8.03;;;;;;;1.14;76.73;98311.77;1777014;80;21107;-83
2021/03/02 05:32:49;;;;;;;13.03;7.90;;;;;;;1.19;76.62;98318.08;1766873;80;21535;-83
2021/03/02 05:35:16;;;;;;;17.98;10.08;;;;;;;1.18;76.54;98314.34;1777110;80;21508;-83
2021/03/02 05:37:43;;;;;;;15.93;9.48;;;;;;;1.13;76.55;98289.26;1766333;80;21111;-83
2021/03/02 05:40:13;;;;;;;13.18;7.90;;;;;;;1.44;76.59;98316.07;1788838;80;21152;-83
2021/03/02 05:42:40;;;;;;;13.75;8.58;;;;;;;1.91;75.84;98318.03;1784534;80;21518;-83
2021/03/02 05:45:09;;;;;;;14.87;9.18;;;;;;;2.36;75.04;98311.25;1775272;79;21533;-83
2021/03/02 05:47:38;;;;;;;18.75;10.43;;;;;;;2.74;74.03;98313.68;1771409;80;21447;-83
2021/03/02 05:50:07;;;;;;;16.87;10.13;;;;;;;3.09;73.72;98300.69;1766466;80;21213;-83
2021/03/02 05:52:34;;;;;;;15.93;7.17;;;;;;;3.47;72.96;98307.25;1761053;80;21507;-83
2021/03/02 05:55:03;;;;;;;16.62;9.68;;;;;;;3.80;70.38;98307.48;1776705;80;21144;-83
2021/03/02 05:57:33;;;;;;;18.23;9.93;;;;;;;3.98;70.06;98314.84;1795412;80;21192;-81
2021/03/02 06:00:01;;;;;;;14.20;8.50;;;;;;;4.23;69.23;98309.11;1786745;80;21124;-81
2021/03/02 06:02:28;;;;;;;16.67;9.20;;;;;;;4.38;67.34;98309.77;1773664;80;21503;-81
2021/03/02 06:04:56;;;;;;;16.48;7.65;;;;;;;4.61;67.94;98310.23;1775102;79;21196;-81
2021/03/02 06:07:23;;;;;;;13.10;7.53;;;;;;;4.84;65.96;98315.65;1769938;79;21195;-81
2021/03/02 06:09:51;;;;;;;15.93;9.90;;;;;;;4.92;64.39;98329.90;1769681;79;21127;-81
2021/03/02 06:12:18;;;;;;;15.65;8.90;;;;;;;4.98;64.37;98319.41;1778192;79;21163;-81
2021/03/02 06:14:46;;;;;;;13.88;8.40;;;;;;;5.24;64.30;98306.80;1783921;80;21111;-81
2021/03/02 06:17:13;;;;;;;14.28;8.45;;;;;;;5.66;63.07;98304.75;1769395;80;21503;-81
2021/03/02 06:19:48;;;;;;;13.53;8.05;;;;;;;5.98;63.26;98298.33;1776565;78;21177;-81
2021/03/02 06:22:38;;;;;;;14.80;7.95;;;;;;;6.33;60.75;98289.58;1768690;80;21179;-83
2021/03/02 06:25:10;;;;;;;13.15;8.08;;;;;;;6.60;60.91;98303.44;1779095;79;21452;-82
2021/03/02 06:27:47;;;;;;;14.30;8.75;;;;;;;6.75;58.69;98294.23;1783880;79;21264;-82
2021/03/02 06:30:16;;;;;;;13.70;8.28;;;;;;;7.03;59.06;98295.16;1779778;80;21169;-83
2021/03/02 06:32:51;;;;;;;12.03;7.55;;;;;;;7.36;58.75;98300.20;1784000;79;21158;-82
2021/03/02 06:35:38;;;;;;;10.95;6.22;;;;;;;7.42;57.31;98297.20;1778818;79;21144;-82
2021/03/02 06:38:06;;;;;;;12.20;7.42;;;;;;;7.54;55.62;98296.79;1781079;79;21111;-82
2021/03/02 06:40:49;;;;;;;12.30;7.67;;;;;;;7.26;55.27;98289.83;1787836;79;21485;-82
2021/03/02 06:43:37;;;;;;;11.63;7.33;;;;;;;7.55;56.21;98297.08;1774148;80;21188;-82
2021/03/02 06:46:13;;;;;;;11.70;7.78;;;;;;;7.76;53.83;98287.16;1795436;79;21484;-83
2021/03/02 06:48:56;;;;;;;12.60;7.85;;;;;;;8.21;55.27;98279.75;1781494;79;21144;-83
2021/03/02 06:51:37;;;;;;;11.70;7.70;;;;;;;8.78;53.10;98282.38;1783565;79;21566;-83
2021/03/02 06:54:15;;;;;;;13.75;8.33;;;;;;;9.12;52.63;98295.39;1764913;80;21136;-83
2021/03/02 06:56:46;;;;;;;11.60;7.72;;;;;;;9.01;52.83;98292.72;1783393;80;21111;-83
2021/03/02 06:59:19;;;;;;;12.20;8.45;;;;;;;9.13;50.92;98301.49;1783839;80;21124;-83
2021/03/02 07:01:48;;;;;;;11.45;7.65;;;;;;;8.91;50.87;98292.77;1788594;79;21162;-83
2021/03/02 07:04:20;;;;;;;11.78;7.50;;;;;;;8.79;50.69;98283.98;1778810;80;21173;-83
2021/03/02 07:06:54;;;;;;;11.35;7.65;;;;;;;8.49;50.06;98285.31;1774974;79;21115;-83
2021/03/02 07:09:21;;;;;;;9.35;5.85;;;;;;;8.70;51.37;98289.30;1766540;80;21080;-83
2021/03/02 07:11:49;;;;;;;10.72;6.75;;;;;;;9.45;48.66;98286.94;1743441;80;21519;-83
2021/03/02 07:14:16;;;;;;;10.32;7.10;;;;;;;9.88;48.92;98284.45;1764257;80;21473;-83
2021/03/02 07:16:47;;;;;;;10.85;7.05;;;;;;;9.88;47.60;98272.53;1761644;80;21553;-84
2021/03/02 07:19:23;;;;;;;9.88;6.80;;;;;;;9.77;47.82;98269.38;1771709;80;21120;-83
2021/03/02 07:21:54;;;;;;;11.63;7.65;;;;;;;9.55;48.53;98268.34;1779720;80;21117;-83
2021/03/02 07:24:28;;;;;;;9.45;6.53;;;;;;;9.82;48.49;98260.20;1752963;80;21254;-83
2021/03/02 07:27:01;;;;;;;10.98;7.25;;;;;;;9.87;47.39;98267.47;1737326;80;21409;-83
2021/03/02 07:29:28;;;;;;;9.93;6.45;;;;;;;9.83;46.81;98260.48;1727029;81;21478;-83
2021/03/02 07:31:56;;;;;;;11.38;7.40;;;;;;;9.79;47.27;98264.64;1748975;80;21125;-84
2021/03/02 07:34:25;;;;;;;10.75;6.97;;;;;;;9.86;45.99;98265.34;1747101;80;21486;-83
2021/03/02 07:36:52;;;;;;;9.40;6.50;;;;;;;9.97;46.29;98266.34;1757065;80;21498;-84
2021/03/02 07:39:23;;;;;;;13.03;7.50;;;;;;;10.08;46.08;98261.55;1758839;80;21092;-83
2021/03/02 07:41:52;;;;;;;11.05;8.18;;;;;;;10.25;45.98;98272.24;1765482;80;21197;-84
2021/03/02 07:44:20;;;;;;;12.15;8.15;;;;;;;10.54;45.97;98271.73;1754612;80;21152;-84
2021/03/02 07:46:55;;;;;;;11.18;7.65;;;;;;;11.10;46.03;98276.19;1742672;80;21639;-84
2021/03/02 07:49:30;;;;;;;10.35;7.05;;;;;;;11.86;46.10;98272.59;1759669;80;21182;-84
2021/03/02 07:52:09;;;;;;;10.35;7.03;;;;;;;12.73;44.44;98275.74;1750719;80;21143;-84
2021/03/02 07:54:37;;;;;;;9.45;6.70;;;;;;;13.25;44.09;98275.99;1751901;80;21123;-84
2021/03/02 07:57:22;;;;;;;9.03;6.60;;;;;;;13.92;42.75;98273.22;1766571;80;21138;-84
2021/03/02 08:00:18;;;;;;;8.90;6.95;;;;;;;14.15;41.04;98283.48;1761885;80;21137;-83
2021/03/02 08:03:23;;;;;;;9.15;6.55;;;;;;;14.29;41.31;98274.47;1751723;80;21121;-84
2021/03/02 08:05:54;;;;;;;11.40;7.42;;;;;;;14.57;39.41;98277.27;1765940;80;21138;-84
2021/03/02 08:08:28;;;;;;;10.40;7.33;;;;;;;14.58;39.21;98278.06;1753434;80;21139;-84
2021/03/02 08:11:02;;;;;;;9.53;6.75;;;;;;;14.70;39.93;98286.11;1781777;80;21127;-83
2021/03/02 08:13:42;;;;;;;11.05;7.17;;;;;;;14.67;37.90;98285.31;1760435;80;21137;-83
2021/03/02 08:16:13;;;;;;;10.45;7.65;;;;;;;14.87;38.89;98275.72;1781855;80;21131;-83
2021/03/02 08:18:44;;;;;;;19.23;13.00;;;;;;;15.14;39.18;98277.63;1792617;79;21107;-83
2021/03/02 08:21:19;;;;;;;12.98;8.70;;;;;;;15.04;36.84;98278.95;1796222;79;21184;-84
2021/03/02 08:23:53;;;;;;;12.60;8.40;;;;;;;15.09;38.41;98273.09;1797173;78;21126;-83
2021/03/02 08:26:33;;;;;;;11.55;7.42;;;;;;;15.13;38.17;98268.01;1782699;78;21129;-83
2021/03/02 08:29:09;;;;;;;8.73;6.25;;;;;;;15.34;37.58;98260.27;1792246;79;21455;-83
2021/03/02 08:31:39;;;;;;;9.75;6.50;;;;;;;15.43;36.34;98272.55;1786405;79;21158;-83
2021/03/02 08:34:08;;;;;;;8.53;5.30;;;;;;;15.34;37.05;98264.28;1801037;78;21084;-83
2021/03/02 08:36:37;;;;;;;8.93;5.28;;;;;;;15.39;35.33;98267.48;1792124;78;21153;-83
2021/03/02 08:39:14;;;;;;;9.33;5.80;;;;;;;15.40;34.72;98267.74;1810143;78;21180;-82
2021/03/02 08:41:44;;;;;;;9.70;5.87;;;;;;;15.18;36.27;98277.35;1802518;79;21127;-83
2021/03/02 08:44:21;;;;;;;9.18;5.15;;;;;;;15.25;35.06;98276.56;1796133;79;21147;-83
2021/03/02 08:46:55;;;;;;;9.05;5.55;;;;;;;14.97;35.15;98281.09;1795287;79;21128;-83
2021/03/02 08:49:24;;;;;;;12.98;6.72;;;;;;;14.83;35.94;98270.12;1767586;81;21107;-83
2021/03/02 08:52:05;;;;;;;10.03;5.97;;;;;;;14.71;37.08;98266.36;1792507;79;21146;-83
2021/03/02 08:54:32;;;;;;;9.73;6.00;;;;;;;14.68;36.75;98267.42;1798018;79;21109;-83
2021/03/02 08:57:03;;;;;;;9.18;5.53;;;;;;;14.72;37.42;98264.48;1791703;79;21520;-84
2021/03/02 08:59:33;;;;;;;8.03;5.30;;;;;;;14.49;37.32;98257.74;1793006;79;21199;-83
2021/03/02 09:02:00;;;;;;;8.50;5.10;;;;;;;14.22;38.08;98263.25;1760285;80;21118;-83
2021/03/02 09:04:34;;;;;;;8.45;5.28;;;;;;;14.03;39.50;98263.41;1784354;80;21145;-83
2021/03/02 09:07:01;;;;;;;10.23;5.28;;;;;;;13.56;38.25;98259.70;1755860;80;21161;-83
2021/03/02 09:09:30;;;;;;;10.25;5.28;;;;;;;13.05;38.84;98265.92;1795367;79;21180;-83
2021/03/02 09:11:59;;;;;;;8.18;4.75;;;;;;;12.74;39.49;98270.69;1770161;80;21517;-84
2021/03/02 09:14:34;;;;;;;7.95;5.05;;;;;;;12.44;39.45;98265.33;1804087;78;21130;-83
2021/03/02 09:17:06;;;;;;;6.83;4.17;;;;;;;12.39;40.22;98269.27;1803805;79;21075;-83
2021/03/02 09:19:41;;;;;;;6.40;4.08;;;;;;;12.27;40.21;98274.44;1813950;78;21564;-83
2021/03/02 09:22:15;;;;;;;5.05;3.10;;;;;;;12.06;38.94;98280.02;1804106;78;21185;-83
2021/03/02 09:24:49;;;;;;;5.25;2.72;;;;;;;12.06;36.51;98277.36;1790773;78;21176;-83
2021/03/02 09:27:19;;;;;;;5.00;3.02;;;;;;;11.52;34.96;98256.66;1807658;78;21110;-83
2021/03/02 09:29:49;;;;;;;6.00;2.52;;;;;;;11.13;35.46;98269.61;1817640;78;21432;-83
2021/03/02 09:32:29;;;;;;;3.95;2.77;;;;;;;10.87;35.32;98277.66;1797518;78;21127;-83
2021/03/02 09:35:00;;;;;;;3.87;2.50;;;;;;;10.87;35.84;98278.98;1792736;78;21153;-83
2021/03/02 09:37:29;;;;;;;4.55;2.80;;;;;;;10.94;36.61;98274.32;1795357;78;21099;-83
2021/03/02 09:40:07;;;;;;;3.47;2.00;;;;;;;10.94;36.51;98282.28;1787894;79;21205;-83
2021/03/02 09:42:38;;;;;;;4.60;2.58;;;;;;;10.87;34.52;98277.14;1794896;79;21475;-83
2021/03/02 09:45:16;;;;;;;4.90;2.87;;;;;;;10.90;35.98;98287.27;1790637;79;21679;-83
2021/03/02 09:47:46;;;;;;;4.45;3.02;;;;;;;10.92;35.31;98278.55;1762568;79;21144;-83
2021/03/02 09:50:18;;;;;;;5.23;3.00;;;;;;;10.94;35.35;98274.32;1769909;80;21122;-83
2021/03/02 09:52:53;;;;;;;5.55;3.17;;;;;;;10.93;34.71;98278.02;1769165;79;21126;-83
2021/03/02 09:55:26;;;;;;;7.00;3.55;;;;;;;10.88;35.50;98285.37;1771461;80;21487;-83
2021/03/02 09:58:11;;;;;;;6.65;3.47;;;;;;;10.89;35.70;98281.68;1781097;78;21119;-83
2021/03/02 10:00:54;;;;;;;7.10;3.95;;;;;;;11.11;36.29;98288.41;1797090;78;21134;-83
2021/03/02 10:03:35;;;;;;;5.65;3.70;;;;;;;11.38;36.20;98294.41;1774435;79;21522;-83
2021/03/02 10:06:07;;;;;;;3.77;1.98;;;;;;;11.53;36.87;98289.34;1791739;79;21147;-84
2021/03/02 10:08:42;;;;;;;3.25;2.22;;;;;;;11.78;34.06;98284.40;1755604;80;21139;-84
2021/03/02 10:11:18;;;;;;;4.35;2.37;;;;;;;11.76;34.09;98285.17;1796057;79;21292;-83
2021/03/02 10:13:54;;;;;;;3.77;2.45;;;;;;;11.83;33.28;98289.03;1790492;79;21111;-84
2021/03/02 10:16:32;;;;;;;2.55;2.15;;;;;;;11.94;34.56;98294.74;1789039;79;21242;-84
2021/03/02 10:19:04;;;;;;;3.72;2.33;;;;;;;12.12;34.11;98285.17;1774957;80;21428;-83
2021/03/02 10:21:57;;;;;;;3.52;2.20;;;;;;;12.18;33.20;98295.33;1773115;79;21127;-84
2021/03/02 10:24:38;;;;;;;4.50;2.50;;;;;;;12.27;32.68;98292.53;1781607;80;21510;-84
2021/03/02 10:27:16;;;;;;;4.20;2.40;;;;;;;12.35;34.08;98289.42;1775600;80;21115;-83
2021/03/02 10:29:46;;;;;;;3.37;1.55;;;;;;;12.56;33.13;98279.03;1767644;79;21120;-83
2021/03/02 10:32:14;;;;;;;3.77;2.50;;;;;;;12.51;30.99;98281.61;1782259;80;21144;-83
2021/03/02 10:34:43;;;;;;;5.12;3.00;;;;;;;12.44;32.43;98277.30;1786349;79;21115;-83
2021/03/02 10:37:14;;;;;;;4.37;2.60;;;;;;;12.54;32.34;98279.28;1795892;79;21170;-83
2021/03/02 10:39:41;;;;;;;4.03;2.85;;;;;;;12.55;32.20;98269.44;1766572;79;21147;-84
2021/03/02 10:42:10;;;;;;;4.17;2.10;;;;;;;12.69;33.38;98279.44;1792095;79;21468;-83
2021/03/02 10:44:38;;;;;;;4.65;2.95;;;;;;;12.78;31.15;98277.11;1817958;78;21535;-83
2021/03/02 10:47:06;;;;;;;6.37;3.30;;;;;;;12.73;32.07;98269.09;1786216;79;21157;-83
2021/03/02 10:49:33;;;;;;;6.28;3.58;;;;;;;12.71;32.80;98267.21;1775579;80;21111;-83
2021/03/02 10:52:00;;;;;;;5.12;3.33;;;;;;;12.78;33.51;98260.62;1780627;80;21141;-83
2021/03/02 10:54:29;;;;;;;7.45;4.33;;;;;;;12.89;32.55;98254.06;1772229;80;21123;-83
2021/03/02 10:56:57;;;;;;;6.35;3.52;;;;;;;12.79;32.69;98251.58;1791979;80;21585;-83
2021/03/02 10:59:24;;;;;;;7.20;3.52;;;;;;;12.87;33.05;98250.33;1784285;80;21119;-84
2021/03/02 11:01:51;;;;;;;6.33;3.70;;;;;;;13.07;32.81;98241.17;1778607;79;21490;-84
2021/03/02 11:04:19;;;;;;;7.42;3.98;;;;;;;13.07;32.34;98253.69;1798258;79;21099;-84
2021/03/02 11:06:46;;;;;;;7.42;4.15;;;;;;;13.04;33.99;98255.00;1767883;79;21095;-84
2021/03/02 11:09:14;;;;;;;7.17;4.00;;;;;;;13.23;35.48;98259.47;1800842;79;21225;-84
2021/03/02 11:11:41;;;;;;;9.05;5.03;;;;;;;13.35;34.08;98245.41;1787102;79;21497;-84
2021/03/02 11:14:10;;;;;;;10.60;5.58;;;;;;;13.47;35.71;98245.23;1779097;79;21119;-84
2021/03/02 11:16:38;;;;;;;7.95;4.85;;;;;;;13.55;35.23;98236.77;1747860;81;21151;-84
2021/03/02 11:19:05;;;;;;;8.03;5.12;;;;;;;13.71;36.22;98240.86;1769954;80;21500;-84
2021/03/02 11:21:32;;;;;;;13.10;6.83;;;;;;;13.87;36.10;98242.55;1767013;80;21158;-84
2021/03/02 11:23:59;;;;;;;10.03;6.78;;;;;;;13.91;35.47;98234.30;1775488;79;21143;-84
2021/03/02 11:26:26;;;;;;;9.80;5.90;;;;;;;13.77;35.00;98243.28;1773397;80;21120;-84
2021/03/02 11:28:53;;;;;;;14.33;7.17;;;;;;;13.80;35.79;98240.13;1761321;81;21548;-85
2021/03/02 11:31:20;;;;;;;11.05;6.42;;;;;;;13.93;36.20;98236.16;1772790;80;21138;-84
2021/03/02 11:33:48;;;;;;;11.95;7.87;;;;;;;14.05;35.87;98235.42;1772717;80;21114;-84
2021/03/02 11:36:15;;;;;;;12.63;7.30;;;;;;;14.05;36.43;98239.42;1758947;80;21147;-85
2021/03/02 11:38:42;;;;;;;15.25;8.00;;;;;;;14.20;37.36;98239.48;1738321;81;21525;-84
2021/03/02 11:41:10;;;;;;;14.50;8.90;;;;;;;14.34;36.79;98236.33;1736071;81;21328;-84
2021/03/02 11:43:37;;;;;;;16.90;10.48;;;;;;;14.35;36.58;98237.92;1767330;80;21156;-85
2021/03/02 11:46:04;;;;;;;19.05;11.03;;;;;;;14.37;36.86;98239.83;1770141;80;21472;-85
2021/03/02 11:48:31;;;;;;;16.07;10.23;;;;;;;14.41;37.39;98242.23;1759470;80;21172;-85
2021/03/02 11:50:59;;;;;;;19.20;12.45;;;;;;;14.54;37.80;98243.10;1756797;80;21162;-84